Time;durP1;ratioP1;P1;durP2;ratioP2;P2;SDS_P1;SDS_P2;PMS_P1;PMS_P2;Temp;Humidity;BMP_temperature;BMP_pressure;BME280_temperature;BME280_humidity;BME280_pressure;Samples;Min_cycle;Max_cycle;Signal;HPM_P1;HPM_P2
2021/11/28 00:02:26;;;;;;;10.50;5.93;;;5.50;88.40;;;;;;4995119;28;20450;-76
2021/11/28 00:04:56;;;;;;;10.20;5.80;;;5.50;88.60;;;;;;4994780;28;20437;-75
2021/11/28 00:07:31;;;;;;;10.80;5.50;;;5.50;88.70;;;;;;4994122;28;20924;-76
2021/11/28 00:10:04;;;;;;;7.53;5.63;;;5.40;88.50;;;;;;5017797;23;20829;-66
2021/11/28 00:12:40;;;;;;;7.30;5.63;;;5.40;88.50;;;;;;4994289;28;20460;-66
2021/11/28 00:15:09;;;;;;;12.47;6.40;;;5.40;88.80;;;;;;4994276;28;20432;-66
2021/11/28 00:17:37;;;;;;;9.37;6.47;;;5.40;89.00;;;;;;4994131;28;20542;-66
2021/11/28 00:20:10;;;;;;;9.97;6.47;;;5.40;89.20;;;;;;4993904;28;20475;-66
2021/11/28 00:22:38;;;;;;;8.70;6.27;;;5.40;89.10;;;;;;4993884;28;20447;-66
2021/11/28 00:25:06;;;;;;;7.50;6.57;;;5.40;89.20;;;;;;4993226;28;20499;-66
2021/11/28 00:27:33;;;;;;;10.80;7.43;;;5.40;89.30;;;;;;5002025;28;20448;-63
2021/11/28 00:30:00;;;;;;;8.23;6.43;;;5.40;89.10;;;;;;4993925;28;20449;-64
2021/11/28 00:32:27;;;;;;;8.30;6.50;;;5.50;89.30;;;;;;4993982;28;20459;-63
2021/11/28 00:34:54;;;;;;;11.43;6.53;;;5.50;89.40;;;;;;4994020;28;20452;-63
2021/11/28 00:37:22;;;;;;;10.97;7.80;;;5.50;89.40;;;;;;4993636;28;21031;-63
2021/11/28 00:39:49;;;;;;;10.20;7.10;;;5.50;89.50;;;;;;4993968;28;20810;-64
2021/11/28 00:42:16;;;;;;;12.13;7.23;;;5.50;89.50;;;;;;4993988;28;20550;-63
2021/11/28 00:44:43;;;;;;;12.50;8.00;;;5.60;89.50;;;;;;4993906;28;20468;-63
2021/11/28 00:47:11;;;;;;;8.73;6.00;;;5.60;89.50;;;;;;4993795;28;20445;-63
2021/11/28 00:49:38;;;;;;;11.20;7.70;;;5.60;89.50;;;;;;4993868;28;20444;-63
2021/11/28 00:52:06;;;;;;;8.20;6.73;;;5.60;89.40;;;;;;4993747;28;20522;-63
2021/11/28 00:54:34;;;;;;;8.50;6.93;;;5.60;89.40;;;;;;4993874;28;20599;-63
2021/11/28 00:57:14;;;;;;;8.40;7.00;;;5.60;89.30;;;;;;5008212;28;20460;-67
2021/11/28 00:59:40;;;;;;;10.80;6.87;;;5.60;89.10;;;;;;4996144;28;20436;-67
2021/11/28 01:02:07;;;;;;;9.57;6.70;;;5.60;88.90;;;;;;4994196;28;20475;-67
2021/11/28 01:04:34;;;;;;;7.90;5.97;;;5.50;88.90;;;;;;4993888;28;20479;-68
2021/11/28 01:07:01;;;;;;;6.80;6.20;;;5.50;88.90;;;;;;4994090;28;20440;-68
2021/11/28 01:09:28;;;;;;;8.03;6.27;;;5.60;89.00;;;;;;4993548;28;20950;-68
2021/11/28 01:11:56;;;;;;;9.60;5.80;;;5.60;88.90;;;;;;4993340;28;20816;-67
2021/11/28 01:14:22;;;;;;;8.07;6.57;;;5.50;88.70;;;;;;4993905;28;20449;-67
2021/11/28 01:16:49;;;;;;;8.20;6.00;;;5.50;88.80;;;;;;4993762;28;20452;-68
2021/11/28 01:19:16;;;;;;;12.77;6.60;;;5.50;89.70;;;;;;4993363;28;20815;-68
2021/11/28 01:21:51;;;;;;;7.43;5.53;;;5.50;89.10;;;;;;4993241;28;20467;-67
2021/11/28 01:24:18;;;;;;;7.90;6.10;;;5.50;89.10;;;;;;5002825;23;20444;-75
2021/11/28 01:26:45;;;;;;;7.10;6.40;;;5.50;89.20;;;;;;4993225;28;20452;-75
2021/11/28 01:29:13;;;;;;;9.77;6.50;;;5.50;89.20;;;;;;4993340;28;20429;-75
2021/11/28 01:31:41;;;;;;;5.90;5.30;;;5.50;89.20;;;;;;4993740;28;20459;-75
2021/11/28 01:34:08;;;;;;;9.83;7.07;;;5.50;89.10;;;;;;4993137;28;20960;-75
2021/11/28 01:36:36;;;;;;;7.27;5.63;;;5.50;88.90;;;;;;4993784;28;20448;-75
2021/11/28 01:39:03;;;;;;;6.33;5.73;;;5.50;88.80;;;;;;4996606;28;20480;-75
2021/11/28 01:41:30;;;;;;;8.80;6.57;;;5.40;88.60;;;;;;4997027;28;20444;-75
2021/11/28 01:43:57;;;;;;;8.90;7.10;;;5.50;88.50;;;;;;4997309;28;20444;-75
2021/11/28 01:46:27;;;;;;;11.80;6.80;;;5.40;88.30;;;;;;4997060;28;20452;-75
2021/11/28 01:48:55;;;;;;;12.00;6.17;;;5.40;88.10;;;;;;4997050;28;20444;-75
2021/11/28 01:51:22;;;;;;;7.00;5.77;;;5.30;88.00;;;;;;4996873;28;20433;-75
2021/11/28 01:53:51;;;;;;;6.77;5.50;;;5.30;87.90;;;;;;4996910;28;20455;-75
2021/11/28 01:56:18;;;;;;;10.00;7.10;;;5.30;87.80;;;;;;4996941;28;20448;-75
2021/11/28 01:58:45;;;;;;;10.40;6.27;;;5.30;87.70;;;;;;4996884;28;20854;-75
2021/11/28 02:01:15;;;;;;;8.90;6.00;;;5.30;87.60;;;;;;4996528;28;20980;-76
2021/11/28 02:03:44;;;;;;;6.83;6.00;;;5.20;87.40;;;;;;4996478;28;20459;-76
2021/11/28 02:06:14;;;;;;;9.20;6.70;;;5.20;87.30;;;;;;4996707;28;20444;-76
2021/11/28 02:08:42;;;;;;;8.30;5.67;;;5.20;87.30;;;;;;4996931;28;20447;-76
2021/11/28 02:11:10;;;;;;;7.80;5.80;;;5.20;87.50;;;;;;4996550;28;20476;-76
2021/11/28 02:13:37;;;;;;;9.00;5.77;;;5.20;87.60;;;;;;4996499;28;20454;-75
2021/11/28 02:16:04;;;;;;;7.90;5.70;;;5.20;87.70;;;;;;4996439;28;20448;-75
2021/11/28 02:18:31;;;;;;;8.37;6.77;;;5.10;87.60;;;;;;4996204;28;21060;-76
2021/11/28 02:21:01;;;;;;;9.50;5.80;;;5.10;87.60;;;;;;4996214;28;20807;-76
2021/11/28 02:23:28;;;;;;;7.47;6.10;;;5.10;87.70;;;;;;4996351;28;20482;-76
2021/11/28 02:25:58;;;;;;;12.23;7.33;;;5.10;87.80;;;;;;4996120;28;20471;-76
2021/11/28 02:28:25;;;;;;;7.87;5.40;;;5.10;87.80;;;;;;4996241;28;20444;-76
2021/11/28 02:30:52;;;;;;;7.50;6.70;;;5.10;87.80;;;;;;4996237;28;20472;-75
2021/11/28 02:33:18;;;;;;;7.17;5.50;;;5.10;87.90;;;;;;4996346;28;20464;-75
2021/11/28 02:35:45;;;;;;;9.20;6.20;;;5.10;87.80;;;;;;4996136;28;20452;-75
2021/11/28 02:38:14;;;;;;;9.40;7.10;;;5.00;87.90;;;;;;4995923;28;20495;-75
2021/11/28 02:40:42;;;;;;;13.40;7.63;;;5.00;87.80;;;;;;4995918;28;20480;-75
2021/11/28 02:43:09;;;;;;;7.87;6.17;;;5.00;87.90;;;;;;4995933;28;20455;-76
2021/11/28 02:45:37;;;;;;;10.90;6.30;;;5.00;87.60;;;;;;4996037;28;20486;-76
2021/11/28 02:48:07;;;;;;;9.03;5.93;;;5.00;87.60;;;;;;4995537;28;20444;-76
2021/11/28 02:50:34;;;;;;;10.40;6.43;;;5.00;87.30;;;;;;4995466;28;20472;-76
2021/11/28 02:53:04;;;;;;;8.77;6.10;;;4.90;87.80;;;;;;4995880;28;20448;-76
2021/11/28 02:55:35;;;;;;;7.83;6.47;;;4.90;87.00;;;;;;4995467;28;20507;-76
2021/11/28 02:58:04;;;;;;;6.63;5.97;;;4.90;87.00;;;;;;4995541;28;20469;-76
2021/11/28 03:00:33;;;;;;;11.57;7.40;;;4.80;86.90;;;;;;4995134;28;20480;-76
2021/11/28 03:03:00;;;;;;;8.03;5.60;;;4.80;87.00;;;;;;4995608;28;20812;-76
2021/11/28 03:05:27;;;;;;;8.90;6.10;;;4.80;87.10;;;;;;4995572;28;20630;-76
2021/11/28 03:07:54;;;;;;;9.67;6.73;;;4.80;87.20;;;;;;4995472;28;20451;-76
2021/11/28 03:10:37;;;;;;;10.70;6.30;;;4.70;87.40;;;;;;4995395;28;20468;-76
2021/11/28 03:13:06;;;;;;;8.97;5.90;;;4.70;87.60;;;;;;4995483;28;20523;-76
2021/11/28 03:15:33;;;;;;;8.97;6.37;;;4.70;87.50;;;;;;4995344;28;20539;-76
2021/11/28 03:18:00;;;;;;;8.50;5.63;;;4.70;87.40;;;;;;4995131;28;20480;-76
2021/11/28 03:20:27;;;;;;;8.20;6.20;;;4.70;87.20;;;;;;4994828;28;20471;-75
2021/11/28 03:22:54;;;;;;;8.00;5.50;;;4.60;86.90;;;;;;4995161;28;20814;-75
2021/11/28 03:25:23;;;;;;;10.83;6.10;;;4.60;86.80;;;;;;4994746;28;20460;-75
2021/11/28 03:27:51;;;;;;;10.77;6.70;;;4.60;86.40;;;;;;4995108;28;20452;-75
2021/11/28 03:30:23;;;;;;;7.93;6.37;;;4.60;86.30;;;;;;4994543;28;20990;-75
2021/11/28 03:32:50;;;;;;;8.13;5.63;;;4.50;86.20;;;;;;4994634;28;20437;-75
2021/11/28 03:35:18;;;;;;;7.27;5.40;;;4.50;86.20;;;;;;4994828;28;20980;-75
2021/11/28 03:37:45;;;;;;;7.33;6.00;;;4.50;86.30;;;;;;4994619;28;20886;-75
2021/11/28 03:40:14;;;;;;;7.83;6.30;;;4.50;86.40;;;;;;4994975;28;20471;-75
2021/11/28 03:42:41;;;;;;;6.67;6.00;;;4.50;86.50;;;;;;4994701;28;20464;-75
2021/11/28 03:45:13;;;;;;;12.70;6.20;;;4.40;86.20;;;;;;4994715;28;20444;-75
2021/11/28 03:47:40;;;;;;;6.80;6.00;;;4.40;86.20;;;;;;4994547;28;20914;-75
2021/11/28 03:50:08;;;;;;;10.20;6.47;;;4.40;86.30;;;;;;4994309;28;21068;-75
2021/11/28 03:52:35;;;;;;;7.43;6.50;;;4.30;86.30;;;;;;4994308;28;20942;-75
2021/11/28 03:55:03;;;;;;;6.97;5.90;;;4.30;86.40;;;;;;4994613;28;20480;-75
2021/11/28 03:57:30;;;;;;;7.60;6.13;;;4.30;86.80;;;;;;4994559;28;20511;-75
2021/11/28 03:59:57;;;;;;;7.87;6.13;;;4.30;87.20;;;;;;4993989;28;20997;-76
2021/11/28 04:02:27;;;;;;;7.90;6.00;;;4.30;87.50;;;;;;4994529;28;20467;-76
2021/11/28 04:04:53;;;;;;;6.77;5.30;;;4.20;87.60;;;;;;4994080;28;20997;-76
2021/11/28 04:07:20;;;;;;;8.17;6.90;;;4.30;88.10;;;;;;4994431;28;20444;-76
2021/11/28 04:09:47;;;;;;;6.93;6.30;;;4.20;88.20;;;;;;4994482;28;20468;-75
2021/11/28 04:12:14;;;;;;;7.63;6.40;;;4.30;88.50;;;;;;4994345;28;20460;-75
2021/11/28 04:14:42;;;;;;;8.33;6.00;;;4.30;88.70;;;;;;4994306;28;20448;-75
2021/11/28 04:17:09;;;;;;;6.60;5.90;;;4.30;88.90;;;;;;4994348;28;20455;-75
2021/11/28 04:19:37;;;;;;;8.17;6.00;;;4.30;89.30;;;;;;4994123;28;20484;-75
2021/11/28 04:22:04;;;;;;;6.67;5.83;;;4.20;89.40;;;;;;4994213;28;20546;-75
2021/11/28 04:24:31;;;;;;;10.80;5.97;;;4.20;89.70;;;;;;4994042;28;20459;-75
2021/11/28 04:26:58;;;;;;;8.03;5.73;;;4.30;90.00;;;;;;4994191;28;20433;-75
2021/11/28 04:29:25;;;;;;;6.67;6.00;;;4.30;90.10;;;;;;4994092;28;20467;-75
2021/11/28 04:31:52;;;;;;;8.70;6.20;;;4.30;90.20;;;;;;4994199;28;20440;-75
2021/11/28 04:34:19;;;;;;;6.50;5.80;;;4.30;90.30;;;;;;4993967;28;20456;-75
2021/11/28 04:36:47;;;;;;;7.10;5.63;;;4.30;90.40;;;;;;4993956;28;20791;-75
2021/11/28 04:39:14;;;;;;;11.47;5.70;;;4.30;90.50;;;;;;4993535;28;20480;-75
2021/11/28 04:41:41;;;;;;;7.20;6.20;;;4.30;90.50;;;;;;4994128;28;20876;-75
2021/11/28 04:44:08;;;;;;;6.83;5.17;;;4.40;90.60;;;;;;4993920;28;20938;-75
2021/11/28 04:46:35;;;;;;;8.03;5.50;;;4.30;90.70;;;;;;4994044;28;20457;-74
2021/11/28 04:49:03;;;;;;;6.97;6.27;;;4.40;90.80;;;;;;4993565;28;20956;-75
2021/11/28 04:51:30;;;;;;;7.67;5.70;;;4.40;90.80;;;;;;4993834;28;20455;-75
2021/11/28 04:53:58;;;;;;;6.60;5.87;;;4.30;90.80;;;;;;4993795;28;20452;-75
2021/11/28 04:56:26;;;;;;;9.73;6.30;;;4.40;90.90;;;;;;4993536;28;20938;-75
2021/11/28 04:58:53;;;;;;;6.97;5.97;;;4.40;90.90;;;;;;4993729;28;20851;-75
2021/11/28 05:01:21;;;;;;;7.97;6.23;;;4.40;91.00;;;;;;4993739;28;20520;-75
2021/11/28 05:03:48;;;;;;;9.77;6.53;;;4.40;91.00;;;;;;4993695;28;20475;-75
2021/11/28 05:06:15;;;;;;;7.60;6.60;;;4.40;91.00;;;;;;4993466;28;20448;-75
2021/11/28 05:08:42;;;;;;;7.90;6.53;;;4.40;91.00;;;;;;4993669;28;20448;-75
2021/11/28 05:11:10;;;;;;;7.03;6.30;;;4.40;90.90;;;;;;4993969;28;20472;-75
2021/11/28 05:13:37;;;;;;;8.30;6.23;;;4.40;91.00;;;;;;4997286;28;20451;-75
2021/11/28 05:16:04;;;;;;;7.43;6.03;;;4.40;91.10;;;;;;4997580;28;20448;-75
2021/11/28 05:18:31;;;;;;;8.27;6.17;;;4.40;91.10;;;;;;4997527;28;20493;-75
2021/11/28 05:20:58;;;;;;;8.70;6.43;;;4.40;91.20;;;;;;4997332;28;20468;-75
2021/11/28 05:23:24;;;;;;;7.17;5.70;;;4.40;91.20;;;;;;4997336;28;20448;-75
2021/11/28 05:25:51;;;;;;;9.50;6.17;;;4.40;91.30;;;;;;4997155;28;20456;-75
2021/11/28 05:28:19;;;;;;;8.27;7.50;;;4.50;91.50;;;;;;4997992;28;20448;-75
2021/11/28 05:30:46;;;;;;;9.00;6.87;;;4.50;91.50;;;;;;4997218;28;20913;-75
2021/11/28 05:33:13;;;;;;;8.53;7.67;;;4.50;91.50;;;;;;4997211;28;20539;-76
2021/11/28 05:35:40;;;;;;;9.53;6.67;;;4.50;91.50;;;;;;4996955;28;20484;-76
2021/11/28 05:38:07;;;;;;;8.77;6.80;;;4.50;91.60;;;;;;4997988;28;20790;-76
2021/11/28 05:40:34;;;;;;;9.27;6.40;;;4.50;91.50;;;;;;4996712;28;21008;-76
2021/11/28 05:43:00;;;;;;;6.60;6.00;;;4.50;91.50;;;;;;4997388;28;20439;-76
2021/11/28 05:45:29;;;;;;;11.83;7.70;;;4.50;91.50;;;;;;4997121;28;20455;-76
2021/11/28 05:47:55;;;;;;;8.43;7.07;;;4.50;91.60;;;;;;4996820;28;20464;-76
2021/11/28 05:50:26;;;;;;;8.23;7.43;;;4.50;91.60;;;;;;4996956;28;20460;-76
2021/11/28 05:52:53;;;;;;;10.77;7.23;;;4.50;91.70;;;;;;4996977;28;20432;-76
2021/11/28 05:55:20;;;;;;;9.20;7.40;;;4.50;91.70;;;;;;4996644;28;20980;-76
2021/11/28 05:57:48;;;;;;;8.17;7.33;;;4.60;91.70;;;;;;4996939;28;20490;-76
2021/11/28 06:00:18;;;;;;;8.27;7.47;;;4.60;91.70;;;;;;4996726;28;20902;-76
2021/11/28 06:02:46;;;;;;;8.20;7.10;;;4.60;91.70;;;;;;4996771;28;20429;-76
2021/11/28 06:05:13;;;;;;;10.90;7.97;;;4.60;91.70;;;;;;4996657;28;20444;-76
2021/11/28 06:07:40;;;;;;;12.57;8.27;;;4.60;91.70;;;;;;4996334;28;20460;-76
2021/11/28 06:10:08;;;;;;;9.60;7.67;;;4.60;91.70;;;;;;4997003;28;20475;-76
2021/11/28 06:12:35;;;;;;;8.63;7.70;;;4.60;91.70;;;;;;4996497;28;20459;-76
2021/11/28 06:15:02;;;;;;;10.03;7.50;;;4.60;91.70;;;;;;4996572;28;20456;-76
2021/11/28 06:17:29;;;;;;;9.47;8.47;;;4.60;91.70;;;;;;4997372;28;20474;-76
2021/11/28 06:19:57;;;;;;;10.77;7.33;;;4.60;91.70;;;;;;4996023;28;20578;-76
2021/11/28 06:22:24;;;;;;;12.03;7.50;;;4.60;91.70;;;;;;4996039;28;20863;-76
2021/11/28 06:24:51;;;;;;;9.30;7.60;;;4.60;91.70;;;;;;4995049;28;20463;-76
2021/11/28 06:27:19;;;;;;;8.90;8.00;;;4.60;91.70;;;;;;4996367;28;20452;-76
2021/11/28 06:29:46;;;;;;;9.13;8.23;;;4.70;91.80;;;;;;4996120;28;20473;-76
2021/11/28 06:32:13;;;;;;;9.53;8.50;;;4.70;91.90;;;;;;4995888;28;20448;-76
2021/11/28 06:34:39;;;;;;;10.70;8.93;;;4.70;92.00;;;;;;4996321;28;20444;-76
2021/11/28 06:37:08;;;;;;;8.63;7.73;;;4.70;92.00;;;;;;4996032;28;20445;-76
2021/11/28 06:39:35;;;;;;;10.87;8.70;;;4.70;92.00;;;;;;4995812;28;20528;-76
2021/11/28 06:42:01;;;;;;;9.47;8.10;;;4.70;92.10;;;;;;4996006;28;20479;-76
2021/11/28 06:44:28;;;;;;;11.70;8.27;;;4.70;92.10;;;;;;4995928;28;20448;-76
2021/11/28 06:46:55;;;;;;;12.00;7.93;;;4.70;92.10;;;;;;4995946;28;20463;-76
2021/11/28 06:49:24;;;;;;;9.97;8.97;;;4.70;92.20;;;;;;4995718;28;20475;-76
2021/11/28 06:51:51;;;;;;;8.53;7.73;;;4.70;92.10;;;;;;4995864;28;20448;-76
2021/11/28 06:54:19;;;;;;;9.97;7.67;;;4.80;92.20;;;;;;4995467;28;20964;-76
2021/11/28 06:56:46;;;;;;;9.77;8.77;;;4.70;92.10;;;;;;4995976;28;20448;-76
2021/11/28 06:59:13;;;;;;;15.00;8.47;;;4.80;92.20;;;;;;4995589;28;20479;-76
2021/11/28 07:01:40;;;;;;;8.70;7.57;;;4.70;92.10;;;;;;4995622;28;20475;-76
2021/11/28 07:04:06;;;;;;;10.60;8.37;;;4.70;92.10;;;;;;4995884;28;20437;-76
2021/11/28 07:06:33;;;;;;;8.73;7.50;;;4.70;92.20;;;;;;4995519;28;20460;-76
2021/11/28 07:09:00;;;;;;;10.63;8.87;;;4.70;92.20;;;;;;4995452;28;20448;-76
2021/11/28 07:11:28;;;;;;;10.77;8.73;;;4.70;92.20;;;;;;4995572;28;20440;-76
2021/11/28 07:13:55;;;;;;;11.67;7.40;;;4.70;92.30;;;;;;4995414;28;20453;-76
2021/11/28 07:16:22;;;;;;;10.10;8.03;;;4.70;92.30;;;;;;4995223;28;20457;-76
2021/11/28 07:18:50;;;;;;;12.03;8.87;;;4.70;92.40;;;;;;4995117;28;20451;-76
2021/11/28 07:21:17;;;;;;;10.97;9.10;;;4.70;92.30;;;;;;4995188;28;20553;-76
2021/11/28 07:23:46;;;;;;;8.63;7.73;;;4.80;92.40;;;;;;4995307;28;20440;-76
2021/11/28 07:26:13;;;;;;;9.33;7.40;;;4.70;92.40;;;;;;4995075;28;20467;-76
2021/11/28 07:28:42;;;;;;;8.13;7.33;;;4.80;92.40;;;;;;4995086;28;20448;-76
2021/11/28 07:31:09;;;;;;;9.73;7.50;;;4.80;92.40;;;;;;4994679;28;20993;-76
2021/11/28 07:33:36;;;;;;;10.70;7.93;;;4.80;92.50;;;;;;4994972;28;20448;-76
2021/11/28 07:36:03;;;;;;;9.03;8.13;;;4.80;92.50;;;;;;4994880;28;20460;-76
2021/11/28 07:38:30;;;;;;;9.83;8.07;;;4.80;92.50;;;;;;4994824;28;20452;-76
2021/11/28 07:40:57;;;;;;;11.50;9.13;;;4.80;92.50;;;;;;4994514;28;20849;-76
2021/11/28 07:43:24;;;;;;;12.70;8.60;;;4.80;92.50;;;;;;4995085;28;20448;-76
2021/11/28 07:45:52;;;;;;;9.37;8.30;;;4.80;92.50;;;;;;4994876;28;20452;-76
2021/11/28 07:48:19;;;;;;;8.40;7.60;;;4.80;92.50;;;;;;4994864;28;20856;-76
2021/11/28 07:50:46;;;;;;;10.93;8.77;;;4.80;92.50;;;;;;4994560;28;20500;-76
2021/11/28 07:53:14;;;;;;;8.33;7.57;;;4.80;92.50;;;;;;4994725;28;20456;-76
2021/11/28 07:55:41;;;;;;;13.77;8.60;;;4.80;92.50;;;;;;4994904;28;20456;-76
2021/11/28 07:58:08;;;;;;;9.83;8.83;;;4.80;92.60;;;;;;4994556;28;20455;-77
2021/11/28 08:00:35;;;;;;;8.43;7.37;;;4.80;92.60;;;;;;4994598;28;20578;-77
2021/11/28 08:03:04;;;;;;;8.33;7.40;;;4.80;92.60;;;;;;4994573;28;20444;-77
2021/11/28 08:05:31;;;;;;;10.03;8.90;;;4.80;92.60;;;;;;4994406;28;20448;-77
2021/11/28 08:07:58;;;;;;;9.53;8.60;;;4.80;92.60;;;;;;4995000;28;20522;-77
2021/11/28 08:10:25;;;;;;;11.07;8.20;;;4.80;92.60;;;;;;4994466;28;20472;-77
2021/11/28 08:12:52;;;;;;;9.03;8.03;;;4.80;92.60;;;;;;4994227;28;20456;-77
2021/11/28 08:15:19;;;;;;;8.63;7.80;;;4.90;92.70;;;;;;4994228;28;20448;-77
2021/11/28 08:17:47;;;;;;;8.70;7.90;;;4.90;92.70;;;;;;4994415;28;20448;-77
2021/11/28 08:20:16;;;;;;;9.80;8.80;;;4.90;92.60;;;;;;4993979;28;20977;-77
2021/11/28 08:22:43;;;;;;;12.83;8.30;;;4.90;92.70;;;;;;4994311;28;20452;-77
2021/11/28 08:25:14;;;;;;;13.10;9.50;;;4.90;92.80;;;;;;4993951;28;20448;-77
2021/11/28 08:27:41;;;;;;;10.93;8.90;;;4.90;92.80;;;;;;4994039;28;20437;-77
2021/11/28 08:30:12;;;;;;;8.27;7.57;;;5.00;92.90;;;;;;4993998;28;20841;-78
2021/11/28 08:32:40;;;;;;;8.97;7.97;;;5.00;92.80;;;;;;4996050;28;20970;-77
2021/11/28 08:35:07;;;;;;;10.40;8.30;;;5.00;92.80;;;;;;4994332;28;20433;-77
2021/11/28 08:37:36;;;;;;;10.87;8.23;;;5.10;93.20;;;;;;4994262;28;20440;-77
2021/11/28 08:40:04;;;;;;;11.10;8.63;;;5.10;92.70;;;;;;4994090;28;20492;-77
2021/11/28 08:42:33;;;;;;;12.20;8.60;;;5.10;92.80;;;;;;4994194;28;20459;-77
2021/11/28 08:45:00;;;;;;;11.70;9.57;;;5.10;92.70;;;;;;4994086;28;20522;-77
2021/11/28 08:47:28;;;;;;;11.40;9.33;;;5.10;92.70;;;;;;4996163;28;20799;-77
2021/11/28 08:49:55;;;;;;;11.73;9.53;;;5.10;92.80;;;;;;4998164;28;20463;-77
2021/11/28 08:52:22;;;;;;;14.70;10.33;;;5.10;92.80;;;;;;4998175;28;20785;-77
2021/11/28 08:54:50;;;;;;;12.27;11.00;;;5.10;92.70;;;;;;4998283;28;20428;-77
2021/11/28 08:57:17;;;;;;;11.47;10.27;;;5.10;92.80;;;;;;4998160;28;20821;-77
2021/11/28 08:59:44;;;;;;;12.13;10.27;;;5.10;93.10;;;;;;4997917;28;20491;-77
2021/11/28 09:02:11;;;;;;;13.33;11.47;;;5.10;92.80;;;;;;4997757;28;20490;-77
2021/11/28 09:04:38;;;;;;;14.07;11.67;;;5.10;92.70;;;;;;4998056;28;20452;-77
2021/11/28 09:07:06;;;;;;;13.43;11.30;;;5.20;92.70;;;;;;4997896;28;20547;-77
2021/11/28 09:09:36;;;;;;;14.83;10.63;;;5.20;92.80;;;;;;5006829;23;20465;-77
2021/11/28 09:12:06;;;;;;;16.53;11.50;;;5.20;92.80;;;;;;4997618;28;20519;-77
2021/11/28 09:14:33;;;;;;;12.90;11.13;;;5.30;92.80;;;;;;4997754;28;20480;-77
2021/11/28 09:17:00;;;;;;;14.50;11.80;;;5.30;92.80;;;;;;4997673;28;20452;-77
2021/11/28 09:19:32;;;;;;;15.77;10.97;;;5.40;92.70;;;;;;4997520;28;20835;-77
2021/11/28 09:22:01;;;;;;;20.17;12.83;;;5.40;92.60;;;;;;4997691;28;20467;-77
2021/11/28 09:24:36;;;;;;;17.07;12.73;;;5.50;92.50;;;;;;4997216;28;20492;-76
2021/11/28 09:27:07;;;;;;;17.60;12.50;;;5.50;92.40;;;;;;4997504;28;20490;-76
2021/11/28 09:29:36;;;;;;;17.27;12.63;;;5.50;92.30;;;;;;4997388;28;20563;-76
2021/11/28 09:32:03;;;;;;;17.33;13.03;;;5.60;92.50;;;;;;4997043;28;20564;-76
2021/11/28 09:34:30;;;;;;;17.83;13.47;;;5.60;92.50;;;;;;4997722;28;20450;-76
2021/11/28 09:36:57;;;;;;;15.03;13.40;;;5.60;92.60;;;;;;4997314;28;20451;-76
2021/11/28 09:39:25;;;;;;;16.17;12.80;;;5.60;92.60;;;;;;4997223;28;20472;-74
2021/11/28 09:41:55;;;;;;;19.10;12.60;;;5.70;92.70;;;;;;4997140;28;20479;-74
2021/11/28 09:44:25;;;;;;;17.30;14.00;;;5.70;92.50;;;;;;4997489;28;20796;-78
2021/11/28 09:46:53;;;;;;;17.67;13.47;;;5.80;92.60;;;;;;4996770;28;20444;-76
2021/11/28 09:49:21;;;;;;;19.50;14.50;;;5.90;92.70;;;;;;4996738;28;20544;-76
2021/11/28 09:51:49;;;;;;;16.10;13.93;;;6.00;92.80;;;;;;4997058;28;20448;-76
2021/11/28 09:54:16;;;;;;;17.47;14.23;;;6.00;92.80;;;;;;4997200;28;20444;-77
2021/11/28 09:56:44;;;;;;;20.80;15.20;;;6.20;92.70;;;;;;4996693;28;20410;-77
2021/11/28 09:59:11;;;;;;;18.40;14.57;;;6.20;92.50;;;;;;4996467;28;20451;-77
2021/11/28 10:01:40;;;;;;;19.37;14.53;;;6.30;92.30;;;;;;4996821;28;20478;-77
2021/11/28 10:04:07;;;;;;;18.10;14.27;;;6.50;92.30;;;;;;4996900;28;20945;-77
2021/11/28 10:06:34;;;;;;;18.93;14.50;;;6.60;92.10;;;;;;4997104;28;20437;-77
2021/11/28 10:09:17;;;;;;;17.50;15.63;;;6.70;91.80;;;;;;4996885;28;20448;-77
2021/11/28 10:12:27;;;;;;;21.40;15.70;;;6.70;91.70;;;;;;4996408;28;20479;-77
2021/11/28 10:15:05;;;;;;;17.83;14.13;;;6.80;91.60;;;;;;4996622;28;20519;-77
2021/11/28 10:17:52;;;;;;;18.87;14.67;;;6.90;91.20;;;;;;4996770;28;20432;-77
2021/11/28 10:20:48;;;;;;;19.97;15.33;;;6.90;91.20;;;;;;4996440;28;20487;-77
2021/11/28 10:23:14;;;;;;;17.50;15.50;;;7.00;91.10;;;;;;4996662;28;20433;-77
2021/11/28 10:25:41;;;;;;;18.60;16.70;;;7.00;90.90;;;;;;4996206;28;20447;-77
2021/11/28 10:28:10;;;;;;;17.97;14.53;;;7.00;90.70;;;;;;4996314;28;20441;-78
2021/11/28 10:30:39;;;;;;;18.33;15.17;;;7.10;90.70;;;;;;4995951;28;20464;-77
2021/11/28 10:33:11;;;;;;;21.77;18.00;;;7.10;90.60;;;;;;4996338;28;20461;-77
2021/11/28 10:35:39;;;;;;;17.10;15.30;;;7.10;90.70;;;;;;4996233;28;20443;-77
2021/11/28 10:38:12;;;;;;;19.30;16.73;;;7.20;90.80;;;;;;4996158;28;20459;-77
2021/11/28 10:40:45;;;;;;;18.40;14.57;;;7.40;90.90;;;;;;4995959;28;20484;-77
2021/11/28 10:43:14;;;;;;;20.70;16.20;;;7.60;90.50;;;;;;4996553;28;20457;-76
2021/11/28 10:45:47;;;;;;;21.00;16.00;;;7.70;89.50;;;;;;4996060;28;20456;-77
2021/11/28 10:48:21;;;;;;;18.27;16.27;;;8.00;89.00;;;;;;4995599;28;20903;-77
2021/11/28 10:50:48;;;;;;;17.10;14.17;;;8.20;88.30;;;;;;4995742;28;20471;-77
2021/11/28 10:53:19;;;;;;;19.40;15.90;;;8.40;87.20;;;;;;4996196;28;20437;-77
2021/11/28 10:55:49;;;;;;;18.83;15.10;;;8.60;85.70;;;;;;4995786;28;20495;-77
2021/11/28 10:58:19;;;;;;;17.37;14.80;;;8.90;84.50;;;;;;4995697;28;20454;-77
2021/11/28 11:01:06;;;;;;;19.00;15.60;;;9.10;83.50;;;;;;4995759;28;20488;-77
2021/11/28 11:03:36;;;;;;;18.53;16.53;;;9.30;82.10;;;;;;4995637;28;20429;-77
2021/11/28 11:06:18;;;;;;;18.97;15.00;;;9.40;79.00;;;;;;4996391;28;20440;-77
2021/11/28 11:08:46;;;;;;;18.33;14.97;;;9.60;77.90;;;;;;4995540;28;20526;-77
2021/11/28 11:11:15;;;;;;;17.20;15.33;;;9.60;77.10;;;;;;4994669;28;21001;-77
2021/11/28 11:13:55;;;;;;;15.70;14.00;;;9.70;76.00;;;;;;4995496;28;20547;-77
2021/11/28 11:16:32;;;;;;;17.93;16.10;;;9.80;76.50;;;;;;4995792;28;20425;-77
2021/11/28 11:19:26;;;;;;;17.33;15.57;;;10.10;74.70;;;;;;4995421;28;20816;-77
2021/11/28 11:22:07;;;;;;;16.00;14.30;;;10.40;72.80;;;;;;4995135;28;20507;-77
2021/11/28 11:24:36;;;;;;;19.30;17.30;;;10.50;71.50;;;;;;4995127;28;20452;-77
2021/11/28 11:27:08;;;;;;;19.23;16.93;;;10.60;71.20;;;;;;4995401;28;20547;-77
2021/11/28 11:29:35;;;;;;;20.37;18.27;;;10.70;70.90;;;;;;4994926;28;20452;-77
2021/11/28 11:32:08;;;;;;;19.20;17.17;;;10.80;70.50;;;;;;4995063;28;20448;-77
2021/11/28 11:34:37;;;;;;;23.20;18.33;;;10.70;69.90;;;;;;4995190;28;20800;-77
2021/11/28 11:37:08;;;;;;;17.77;15.80;;;10.70;70.10;;;;;;4995054;28;20483;-76
2021/11/28 11:39:35;;;;;;;15.23;13.70;;;10.90;68.50;;;;;;4995256;28;20476;-76
2021/11/28 11:42:03;;;;;;;19.87;16.37;;;11.10;67.30;;;;;;4994961;28;20488;-76
2021/11/28 11:44:30;;;;;;;17.43;14.80;;;11.30;66.90;;;;;;4994728;28;20444;-77
2021/11/28 11:46:59;;;;;;;15.10;13.50;;;11.50;64.60;;;;;;4994665;28;20455;-77
2021/11/28 11:49:27;;;;;;;15.53;14.03;;;11.40;63.30;;;;;;4995178;28;20492;-77
2021/11/28 11:51:57;;;;;;;15.80;14.30;;;11.20;63.20;;;;;;4994931;28;20479;-77
2021/11/28 11:54:25;;;;;;;14.90;13.33;;;11.10;64.70;;;;;;4994890;28;20452;-77
2021/11/28 11:57:00;;;;;;;15.13;13.63;;;11.00;64.30;;;;;;4994376;28;20463;-77
2021/11/28 11:59:35;;;;;;;16.60;14.07;;;11.00;65.10;;;;;;4994230;28;20503;-77
2021/11/28 12:02:03;;;;;;;16.27;14.63;;;11.00;64.70;;;;;;4994120;28;20996;-77
2021/11/28 12:04:41;;;;;;;16.60;14.90;;;10.80;65.40;;;;;;4994281;28;20456;-77
2021/11/28 12:07:10;;;;;;;17.97;14.10;;;10.60;67.00;;;;;;4995177;28;20519;-77
2021/11/28 12:09:37;;;;;;;18.20;16.50;;;10.30;67.90;;;;;;4994119;28;20487;-76
2021/11/28 12:12:06;;;;;;;16.40;14.70;;;10.00;68.60;;;;;;4994693;28;20433;-77
2021/11/28 12:14:33;;;;;;;17.30;15.33;;;9.80;70.60;;;;;;4994554;28;20444;-76
2021/11/28 12:17:00;;;;;;;15.37;13.73;;;9.50;71.90;;;;;;4994487;28;20452;-76
2021/11/28 12:19:38;;;;;;;16.43;14.40;;;9.20;72.90;;;;;;4994474;28;20589;-76
2021/11/28 12:22:06;;;;;;;15.80;14.10;;;9.00;74.30;;;;;;4994444;28;20484;-76
2021/11/28 12:24:34;;;;;;;17.50;15.03;;;8.80;75.30;;;;;;4994159;28;20456;-76
2021/11/28 12:27:03;;;;;;;20.30;17.10;;;8.90;76.20;;;;;;4994270;28;20452;-77
2021/11/28 12:29:44;;;;;;;18.10;15.37;;;9.20;75.50;;;;;;4994294;28;20480;-76
2021/11/28 12:32:25;;;;;;;19.30;14.57;;;9.40;74.60;;;;;;4994268;28;20456;-76
2021/11/28 12:35:11;;;;;;;19.00;15.03;;;9.50;73.50;;;;;;4994639;28;20818;-77
2021/11/28 12:37:48;;;;;;;18.70;14.73;;;9.70;72.40;;;;;;4984138;28;20973;-77
2021/11/28 12:40:27;;;;;;;20.37;17.77;;;9.70;71.90;;;;;;4993665;28;20831;-77
2021/11/28 12:42:54;;;;;;;21.60;16.70;;;9.70;72.30;;;;;;4993658;28;20436;-77
2021/11/28 12:45:30;;;;;;;18.83;15.40;;;9.90;72.40;;;;;;4994156;28;20825;-77
2021/11/28 12:48:07;;;;;;;19.10;16.30;;;10.00;70.00;;;;;;4994893;28;20804;-77
2021/11/28 12:50:54;;;;;;;19.67;16.20;;;10.10;69.10;;;;;;4994050;28;20464;-77
2021/11/28 12:53:40;;;;;;;18.87;16.00;;;9.90;69.70;;;;;;4993981;28;20452;-77
2021/11/28 12:56:26;;;;;;;19.97;17.50;;;9.80;70.50;;;;;;4994137;28;20484;-77
2021/11/28 12:59:19;;;;;;;21.87;16.93;;;9.80;71.60;;;;;;4994354;28;20443;-77